<?xml version="1.0" encoding="UTF-8" standalone="no" ?>
<gpx xmlns="http://www.topografix.com/GPX/1/1" xmlns:xsi="http://www.w3.org/2001/XMLSchema-instance" xsi:schemaLocation="http://www.topografix.com/GPX/1/1 http://www.topografix.com/GPX/1/1/gpx.xsd" version="1.1" creator="VisuGPX - https://www.visugpx.com">
  <metadata>
    <name>Course à pied le matin</name>
  </metadata>
  <trk>
    <name><![CDATA[Course à pied le matin_1]]></name>
    <trkseg>
      <trkpt lat="48.7106" lon="7.16492">
        <ele>331.1</ele>
        <time>2024-02-03T09:47:14Z</time>
      </trkpt>
      <trkpt lat="48.71053" lon="7.16519">
        <ele>332.5</ele>
        <time>2024-02-03T09:47:23Z</time>
      </trkpt>
      <trkpt lat="48.71041" lon="7.1654">
        <ele>333.9</ele>
        <time>2024-02-03T09:47:39Z</time>
      </trkpt>
      <trkpt lat="48.71037" lon="7.16567">
        <ele>335.3</ele>
        <time>2024-02-03T09:47:51Z</time>
      </trkpt>
      <trkpt lat="48.71034" lon="7.16595">
        <ele>336.9</ele>
        <time>2024-02-03T09:48:01Z</time>
      </trkpt>
      <trkpt lat="48.71048" lon="7.16631">
        <ele>337.7</ele>
        <time>2024-02-03T09:48:17Z</time>
      </trkpt>
      <trkpt lat="48.71043" lon="7.16659">
        <ele>338.5</ele>
        <time>2024-02-03T09:48:28Z</time>
      </trkpt>
      <trkpt lat="48.71033" lon="7.16683">
        <ele>339.8</ele>
        <time>2024-02-03T09:48:36Z</time>
      </trkpt>
      <trkpt lat="48.71023" lon="7.16706">
        <ele>340.7</ele>
        <time>2024-02-03T09:48:44Z</time>
      </trkpt>
      <trkpt lat="48.71013" lon="7.16729">
        <ele>341.5</ele>
        <time>2024-02-03T09:48:52Z</time>
      </trkpt>
      <trkpt lat="48.71001" lon="7.16751">
        <ele>342.5</ele>
        <time>2024-02-03T09:49:00Z</time>
      </trkpt>
      <trkpt lat="48.7099" lon="7.16775">
        <ele>343.2</ele>
        <time>2024-02-03T09:49:08Z</time>
      </trkpt>
      <trkpt lat="48.70972" lon="7.16784">
        <ele>343.8</ele>
        <time>2024-02-03T09:49:17Z</time>
      </trkpt>
      <trkpt lat="48.70953" lon="7.16775">
        <ele>344.1</ele>
        <time>2024-02-03T09:49:26Z</time>
      </trkpt>
      <trkpt lat="48.70935" lon="7.16781">
        <ele>344.8</ele>
        <time>2024-02-03T09:49:34Z</time>
      </trkpt>
      <trkpt lat="48.70916" lon="7.16785">
        <ele>345.4</ele>
        <time>2024-02-03T09:49:42Z</time>
      </trkpt>
      <trkpt lat="48.70897" lon="7.16785">
        <ele>345.9</ele>
        <time>2024-02-03T09:49:50Z</time>
      </trkpt>
      <trkpt lat="48.70877" lon="7.16788">
        <ele>346.4</ele>
        <time>2024-02-03T09:49:58Z</time>
      </trkpt>
      <trkpt lat="48.70857" lon="7.16793">
        <ele>346.9</ele>
        <time>2024-02-03T09:50:06Z</time>
      </trkpt>
      <trkpt lat="48.70837" lon="7.16798">
        <ele>347.7</ele>
        <time>2024-02-03T09:50:14Z</time>
      </trkpt>
      <trkpt lat="48.70817" lon="7.16802">
        <ele>348.4</ele>
        <time>2024-02-03T09:50:22Z</time>
      </trkpt>
      <trkpt lat="48.70797" lon="7.16805">
        <ele>349.2</ele>
        <time>2024-02-03T09:50:30Z</time>
      </trkpt>
      <trkpt lat="48.70777" lon="7.1681">
        <ele>349.8</ele>
        <time>2024-02-03T09:50:38Z</time>
      </trkpt>
      <trkpt lat="48.70758" lon="7.16817">
        <ele>350.4</ele>
        <time>2024-02-03T09:50:46Z</time>
      </trkpt>
      <trkpt lat="48.7074" lon="7.16823">
        <ele>350.8</ele>
        <time>2024-02-03T09:50:54Z</time>
      </trkpt>
      <trkpt lat="48.7072" lon="7.16832">
        <ele>351.2</ele>
        <time>2024-02-03T09:51:02Z</time>
      </trkpt>
      <trkpt lat="48.70701" lon="7.16838">
        <ele>351.4</ele>
        <time>2024-02-03T09:51:10Z</time>
      </trkpt>
      <trkpt lat="48.70682" lon="7.16843">
        <ele>351.5</ele>
        <time>2024-02-03T09:51:18Z</time>
      </trkpt>
      <trkpt lat="48.70662" lon="7.16846">
        <ele>351.5</ele>
        <time>2024-02-03T09:51:26Z</time>
      </trkpt>
      <trkpt lat="48.70642" lon="7.16849">
        <ele>351.6</ele>
        <time>2024-02-03T09:51:34Z</time>
      </trkpt>
      <trkpt lat="48.70623" lon="7.16849">
        <ele>351.8</ele>
        <time>2024-02-03T09:51:42Z</time>
      </trkpt>
      <trkpt lat="48.70604" lon="7.1685">
        <ele>352</ele>
        <time>2024-02-03T09:51:49Z</time>
      </trkpt>
      <trkpt lat="48.70586" lon="7.16856">
        <ele>352.1</ele>
        <time>2024-02-03T09:51:56Z</time>
      </trkpt>
      <trkpt lat="48.70566" lon="7.1686">
        <ele>352.1</ele>
        <time>2024-02-03T09:52:04Z</time>
      </trkpt>
      <trkpt lat="48.70552" lon="7.16881">
        <ele>351.7</ele>
        <time>2024-02-03T09:52:11Z</time>
      </trkpt>
      <trkpt lat="48.7054" lon="7.16906">
        <ele>350.9</ele>
        <time>2024-02-03T09:52:18Z</time>
      </trkpt>
      <trkpt lat="48.70527" lon="7.16931">
        <ele>350.1</ele>
        <time>2024-02-03T09:52:25Z</time>
      </trkpt>
      <trkpt lat="48.70516" lon="7.16952">
        <ele>349.4</ele>
        <time>2024-02-03T09:52:31Z</time>
      </trkpt>
      <trkpt lat="48.70502" lon="7.16976">
        <ele>348.6</ele>
        <time>2024-02-03T09:52:38Z</time>
      </trkpt>
      <trkpt lat="48.70493" lon="7.16989">
        <ele>348.5</ele>
        <time>2024-02-03T09:52:43Z</time>
      </trkpt>
      <trkpt lat="48.70487" lon="7.16987">
        <ele>348.8</ele>
        <time>2024-02-03T09:52:46Z</time>
      </trkpt>
      <trkpt lat="48.70476" lon="7.16964">
        <ele>349.6</ele>
        <time>2024-02-03T09:52:53Z</time>
      </trkpt>
      <trkpt lat="48.70465" lon="7.16941">
        <ele>350.2</ele>
        <time>2024-02-03T09:53:01Z</time>
      </trkpt>
      <trkpt lat="48.70455" lon="7.16915">
        <ele>350.6</ele>
        <time>2024-02-03T09:53:09Z</time>
      </trkpt>
      <trkpt lat="48.70444" lon="7.16893">
        <ele>351.1</ele>
        <time>2024-02-03T09:53:17Z</time>
      </trkpt>
      <trkpt lat="48.7043" lon="7.16874">
        <ele>351.8</ele>
        <time>2024-02-03T09:53:26Z</time>
      </trkpt>
      <trkpt lat="48.70417" lon="7.16854">
        <ele>352.9</ele>
        <time>2024-02-03T09:53:34Z</time>
      </trkpt>
      <trkpt lat="48.7041" lon="7.16845">
        <ele>353.8</ele>
        <time>2024-02-03T09:53:39Z</time>
      </trkpt>
      <trkpt lat="48.70394" lon="7.1686">
        <ele>354.1</ele>
        <time>2024-02-03T09:53:47Z</time>
      </trkpt>
      <trkpt lat="48.70379" lon="7.16875">
        <ele>354.7</ele>
        <time>2024-02-03T09:53:54Z</time>
      </trkpt>
      <trkpt lat="48.70361" lon="7.16889">
        <ele>355.5</ele>
        <time>2024-02-03T09:54:01Z</time>
      </trkpt>
      <trkpt lat="48.70344" lon="7.16899">
        <ele>356.7</ele>
        <time>2024-02-03T09:54:08Z</time>
      </trkpt>
      <trkpt lat="48.70325" lon="7.16909">
        <ele>358.1</ele>
        <time>2024-02-03T09:54:17Z</time>
      </trkpt>
      <trkpt lat="48.70308" lon="7.1692">
        <ele>359.6</ele>
        <time>2024-02-03T09:54:25Z</time>
      </trkpt>
      <trkpt lat="48.70291" lon="7.16932">
        <ele>360.9</ele>
        <time>2024-02-03T09:54:33Z</time>
      </trkpt>
      <trkpt lat="48.70283" lon="7.16941">
        <ele>361.5</ele>
        <time>2024-02-03T09:54:40Z</time>
      </trkpt>
      <trkpt lat="48.70277" lon="7.16943">
        <ele>361.9</ele>
        <time>2024-02-03T09:56:21Z</time>
      </trkpt>
      <trkpt lat="48.70277" lon="7.16945">
        <ele>362.1</ele>
        <time>2024-02-03T09:56:22Z</time>
      </trkpt>
      <trkpt lat="48.70272" lon="7.16971">
        <ele>362.5</ele>
        <time>2024-02-03T09:56:29Z</time>
      </trkpt>
      <trkpt lat="48.70268" lon="7.17001">
        <ele>363.7</ele>
        <time>2024-02-03T09:56:36Z</time>
      </trkpt>
      <trkpt lat="48.70266" lon="7.17029">
        <ele>364.8</ele>
        <time>2024-02-03T09:56:43Z</time>
      </trkpt>
      <trkpt lat="48.70265" lon="7.17059">
        <ele>365.4</ele>
        <time>2024-02-03T09:56:51Z</time>
      </trkpt>
      <trkpt lat="48.70264" lon="7.17087">
        <ele>365.6</ele>
        <time>2024-02-03T09:56:58Z</time>
      </trkpt>
      <trkpt lat="48.70262" lon="7.17118">
        <ele>366</ele>
        <time>2024-02-03T09:57:05Z</time>
      </trkpt>
      <trkpt lat="48.70259" lon="7.17149">
        <ele>366.4</ele>
        <time>2024-02-03T09:57:12Z</time>
      </trkpt>
      <trkpt lat="48.70256" lon="7.17177">
        <ele>366.9</ele>
        <time>2024-02-03T09:57:18Z</time>
      </trkpt>
      <trkpt lat="48.70253" lon="7.17207">
        <ele>367.3</ele>
        <time>2024-02-03T09:57:25Z</time>
      </trkpt>
      <trkpt lat="48.70252" lon="7.17238">
        <ele>367.2</ele>
        <time>2024-02-03T09:57:32Z</time>
      </trkpt>
      <trkpt lat="48.70252" lon="7.17266">
        <ele>366.6</ele>
        <time>2024-02-03T09:57:38Z</time>
      </trkpt>
      <trkpt lat="48.70251" lon="7.17295">
        <ele>366.5</ele>
        <time>2024-02-03T09:57:44Z</time>
      </trkpt>
      <trkpt lat="48.70252" lon="7.17323">
        <ele>365.4</ele>
        <time>2024-02-03T09:57:49Z</time>
      </trkpt>
      <trkpt lat="48.70252" lon="7.17355">
        <ele>364.3</ele>
        <time>2024-02-03T09:57:55Z</time>
      </trkpt>
      <trkpt lat="48.70254" lon="7.17386">
        <ele>363.8</ele>
        <time>2024-02-03T09:58:01Z</time>
      </trkpt>
      <trkpt lat="48.70254" lon="7.17414">
        <ele>363.3</ele>
        <time>2024-02-03T09:58:07Z</time>
      </trkpt>
      <trkpt lat="48.70254" lon="7.17442">
        <ele>363.3</ele>
        <time>2024-02-03T09:58:13Z</time>
      </trkpt>
      <trkpt lat="48.70257" lon="7.17472">
        <ele>362.3</ele>
        <time>2024-02-03T09:58:20Z</time>
      </trkpt>
      <trkpt lat="48.70255" lon="7.17502">
        <ele>361.1</ele>
        <time>2024-02-03T09:58:26Z</time>
      </trkpt>
      <trkpt lat="48.70252" lon="7.1753">
        <ele>360.6</ele>
        <time>2024-02-03T09:58:31Z</time>
      </trkpt>
      <trkpt lat="48.70249" lon="7.17561">
        <ele>359.6</ele>
        <time>2024-02-03T09:58:37Z</time>
      </trkpt>
      <trkpt lat="48.70247" lon="7.1759">
        <ele>359.2</ele>
        <time>2024-02-03T09:58:42Z</time>
      </trkpt>
      <trkpt lat="48.70244" lon="7.17621">
        <ele>359</ele>
        <time>2024-02-03T09:58:47Z</time>
      </trkpt>
      <trkpt lat="48.70244" lon="7.17632">
        <ele>358.7</ele>
        <time>2024-02-03T09:58:49Z</time>
      </trkpt>
      <trkpt lat="48.70245" lon="7.1766">
        <ele>358.7</ele>
        <time>2024-02-03T09:58:54Z</time>
      </trkpt>
      <trkpt lat="48.70247" lon="7.17688">
        <ele>358.8</ele>
        <time>2024-02-03T09:59:00Z</time>
      </trkpt>
      <trkpt lat="48.7025" lon="7.17718">
        <ele>359.1</ele>
        <time>2024-02-03T09:59:07Z</time>
      </trkpt>
      <trkpt lat="48.70254" lon="7.17748">
        <ele>359.1</ele>
        <time>2024-02-03T09:59:14Z</time>
      </trkpt>
      <trkpt lat="48.70257" lon="7.17778">
        <ele>359.8</ele>
        <time>2024-02-03T09:59:21Z</time>
      </trkpt>
      <trkpt lat="48.7026" lon="7.17808">
        <ele>360.5</ele>
        <time>2024-02-03T09:59:28Z</time>
      </trkpt>
      <trkpt lat="48.70265" lon="7.17837">
        <ele>360.9</ele>
        <time>2024-02-03T09:59:35Z</time>
      </trkpt>
      <trkpt lat="48.70268" lon="7.17865">
        <ele>362.2</ele>
        <time>2024-02-03T09:59:42Z</time>
      </trkpt>
      <trkpt lat="48.70273" lon="7.17892">
        <ele>362.7</ele>
        <time>2024-02-03T09:59:48Z</time>
      </trkpt>
      <trkpt lat="48.70279" lon="7.17919">
        <ele>362.7</ele>
        <time>2024-02-03T09:59:54Z</time>
      </trkpt>
      <trkpt lat="48.70282" lon="7.17946">
        <ele>362.7</ele>
        <time>2024-02-03T10:00:00Z</time>
      </trkpt>
      <trkpt lat="48.70287" lon="7.17974">
        <ele>362.8</ele>
        <time>2024-02-03T10:00:06Z</time>
      </trkpt>
      <trkpt lat="48.7029" lon="7.18003">
        <ele>363.4</ele>
        <time>2024-02-03T10:00:12Z</time>
      </trkpt>
      <trkpt lat="48.70294" lon="7.18032">
        <ele>363.4</ele>
        <time>2024-02-03T10:00:18Z</time>
      </trkpt>
      <trkpt lat="48.70296" lon="7.18059">
        <ele>363</ele>
        <time>2024-02-03T10:00:24Z</time>
      </trkpt>
      <trkpt lat="48.70293" lon="7.18087">
        <ele>363.2</ele>
        <time>2024-02-03T10:00:30Z</time>
      </trkpt>
      <trkpt lat="48.70289" lon="7.18094">
        <ele>363.6</ele>
        <time>2024-02-03T10:00:33Z</time>
      </trkpt>
      <trkpt lat="48.70294" lon="7.18124">
        <ele>362.5</ele>
        <time>2024-02-03T10:00:41Z</time>
      </trkpt>
      <trkpt lat="48.703" lon="7.18154">
        <ele>361.2</ele>
        <time>2024-02-03T10:00:48Z</time>
      </trkpt>
      <trkpt lat="48.70306" lon="7.1818">
        <ele>360.1</ele>
        <time>2024-02-03T10:00:53Z</time>
      </trkpt>
      <trkpt lat="48.7031" lon="7.18208">
        <ele>358.6</ele>
        <time>2024-02-03T10:00:58Z</time>
      </trkpt>
      <trkpt lat="48.70314" lon="7.18239">
        <ele>356.5</ele>
        <time>2024-02-03T10:01:04Z</time>
      </trkpt>
      <trkpt lat="48.7032" lon="7.18268">
        <ele>355.3</ele>
        <time>2024-02-03T10:01:09Z</time>
      </trkpt>
      <trkpt lat="48.70326" lon="7.18295">
        <ele>353.4</ele>
        <time>2024-02-03T10:01:13Z</time>
      </trkpt>
      <trkpt lat="48.70335" lon="7.18322">
        <ele>351.2</ele>
        <time>2024-02-03T10:01:17Z</time>
      </trkpt>
      <trkpt lat="48.70347" lon="7.1835">
        <ele>349.1</ele>
        <time>2024-02-03T10:01:22Z</time>
      </trkpt>
      <trkpt lat="48.70358" lon="7.18373">
        <ele>346.4</ele>
        <time>2024-02-03T10:01:28Z</time>
      </trkpt>
      <trkpt lat="48.70361" lon="7.1838">
        <ele>345.8</ele>
        <time>2024-02-03T10:01:33Z</time>
      </trkpt>
      <trkpt lat="48.70359" lon="7.18386">
        <ele>347.5</ele>
        <time>2024-02-03T10:01:38Z</time>
      </trkpt>
      <trkpt lat="48.70359" lon="7.18413">
        <ele>349.5</ele>
        <time>2024-02-03T10:01:49Z</time>
      </trkpt>
      <trkpt lat="48.70358" lon="7.18425">
        <ele>350.6</ele>
        <time>2024-02-03T10:01:56Z</time>
      </trkpt>
      <trkpt lat="48.70362" lon="7.18426">
        <ele>349.5</ele>
        <time>2024-02-03T10:02:02Z</time>
      </trkpt>
      <trkpt lat="48.70376" lon="7.18408">
        <ele>343.3</ele>
        <time>2024-02-03T10:02:11Z</time>
      </trkpt>
      <trkpt lat="48.70387" lon="7.18383">
        <ele>337.3</ele>
        <time>2024-02-03T10:02:19Z</time>
      </trkpt>
      <trkpt lat="48.70406" lon="7.18374">
        <ele>330.6</ele>
        <time>2024-02-03T10:02:26Z</time>
      </trkpt>
      <trkpt lat="48.70425" lon="7.18374">
        <ele>324.7</ele>
        <time>2024-02-03T10:02:33Z</time>
      </trkpt>
      <trkpt lat="48.70444" lon="7.1838">
        <ele>320.3</ele>
        <time>2024-02-03T10:02:42Z</time>
      </trkpt>
      <trkpt lat="48.70448" lon="7.1838">
        <ele>318.5</ele>
        <time>2024-02-03T10:02:46Z</time>
      </trkpt>
      <trkpt lat="48.7045" lon="7.18375">
        <ele>318.3</ele>
        <time>2024-02-03T10:02:48Z</time>
      </trkpt>
      <trkpt lat="48.70455" lon="7.1836">
        <ele>316.4</ele>
        <time>2024-02-03T10:02:56Z</time>
      </trkpt>
      <trkpt lat="48.70452" lon="7.18354">
        <ele>316.8</ele>
        <time>2024-02-03T10:03:01Z</time>
      </trkpt>
      <trkpt lat="48.70451" lon="7.18345">
        <ele>316.6</ele>
        <time>2024-02-03T10:03:04Z</time>
      </trkpt>
      <trkpt lat="48.70454" lon="7.18315">
        <ele>315.7</ele>
        <time>2024-02-03T10:03:11Z</time>
      </trkpt>
      <trkpt lat="48.7045" lon="7.18285">
        <ele>317.5</ele>
        <time>2024-02-03T10:03:19Z</time>
      </trkpt>
      <trkpt lat="48.70451" lon="7.18258">
        <ele>317.4</ele>
        <time>2024-02-03T10:03:27Z</time>
      </trkpt>
      <trkpt lat="48.70448" lon="7.1823">
        <ele>320</ele>
        <time>2024-02-03T10:03:38Z</time>
      </trkpt>
      <trkpt lat="48.70447" lon="7.18203">
        <ele>322</ele>
        <time>2024-02-03T10:03:48Z</time>
      </trkpt>
      <trkpt lat="48.70444" lon="7.18175">
        <ele>324.3</ele>
        <time>2024-02-03T10:03:57Z</time>
      </trkpt>
      <trkpt lat="48.7044" lon="7.18145">
        <ele>326.8</ele>
        <time>2024-02-03T10:04:06Z</time>
      </trkpt>
      <trkpt lat="48.70434" lon="7.18115">
        <ele>330.3</ele>
        <time>2024-02-03T10:04:14Z</time>
      </trkpt>
      <trkpt lat="48.70427" lon="7.18088">
        <ele>333.3</ele>
        <time>2024-02-03T10:04:22Z</time>
      </trkpt>
      <trkpt lat="48.70428" lon="7.18072">
        <ele>333</ele>
        <time>2024-02-03T10:04:43Z</time>
      </trkpt>
      <trkpt lat="48.70444" lon="7.18067">
        <ele>328.4</ele>
        <time>2024-02-03T10:04:51Z</time>
      </trkpt>
      <trkpt lat="48.70461" lon="7.18079">
        <ele>324.6</ele>
        <time>2024-02-03T10:04:57Z</time>
      </trkpt>
      <trkpt lat="48.7048" lon="7.18084">
        <ele>318.5</ele>
        <time>2024-02-03T10:05:02Z</time>
      </trkpt>
      <trkpt lat="48.70501" lon="7.18081">
        <ele>313.4</ele>
        <time>2024-02-03T10:05:07Z</time>
      </trkpt>
      <trkpt lat="48.70519" lon="7.18089">
        <ele>310.3</ele>
        <time>2024-02-03T10:05:12Z</time>
      </trkpt>
      <trkpt lat="48.70539" lon="7.18095">
        <ele>307</ele>
        <time>2024-02-03T10:05:19Z</time>
      </trkpt>
      <trkpt lat="48.70548" lon="7.18094">
        <ele>306.1</ele>
        <time>2024-02-03T10:05:25Z</time>
      </trkpt>
      <trkpt lat="48.70554" lon="7.18109">
        <ele>305.1</ele>
        <time>2024-02-03T10:05:31Z</time>
      </trkpt>
      <trkpt lat="48.70546" lon="7.18139">
        <ele>304.3</ele>
        <time>2024-02-03T10:05:38Z</time>
      </trkpt>
      <trkpt lat="48.70546" lon="7.18169">
        <ele>303.9</ele>
        <time>2024-02-03T10:05:45Z</time>
      </trkpt>
      <trkpt lat="48.70543" lon="7.18201">
        <ele>302.7</ele>
        <time>2024-02-03T10:05:51Z</time>
      </trkpt>
      <trkpt lat="48.70545" lon="7.1823">
        <ele>301.5</ele>
        <time>2024-02-03T10:05:57Z</time>
      </trkpt>
      <trkpt lat="48.70547" lon="7.18236">
        <ele>300.8</ele>
        <time>2024-02-03T10:05:58Z</time>
      </trkpt>
      <trkpt lat="48.70547" lon="7.18246">
        <ele>300.6</ele>
        <time>2024-02-03T10:06:00Z</time>
      </trkpt>
      <trkpt lat="48.70543" lon="7.18274">
        <ele>300</ele>
        <time>2024-02-03T10:06:07Z</time>
      </trkpt>
      <trkpt lat="48.70544" lon="7.18274">
        <ele>299.7</ele>
        <time>2024-02-03T10:06:10Z</time>
      </trkpt>
      <trkpt lat="48.7056" lon="7.18256">
        <ele>299.3</ele>
        <time>2024-02-03T10:06:18Z</time>
      </trkpt>
      <trkpt lat="48.70579" lon="7.18247">
        <ele>299.1</ele>
        <time>2024-02-03T10:06:23Z</time>
      </trkpt>
      <trkpt lat="48.70598" lon="7.18243">
        <ele>300.4</ele>
        <time>2024-02-03T10:06:29Z</time>
      </trkpt>
      <trkpt lat="48.70617" lon="7.18242">
        <ele>302.1</ele>
        <time>2024-02-03T10:06:42Z</time>
      </trkpt>
      <trkpt lat="48.70617" lon="7.18241">
        <ele>302.1</ele>
        <time>2024-02-03T10:06:43Z</time>
      </trkpt>
      <trkpt lat="48.70617" lon="7.1824">
        <ele>302.5</ele>
        <time>2024-02-03T10:06:45Z</time>
      </trkpt>
      <trkpt lat="48.70616" lon="7.18239">
        <ele>302.4</ele>
        <time>2024-02-03T10:06:49Z</time>
      </trkpt>
      <trkpt lat="48.70628" lon="7.1825">
        <ele>303.2</ele>
        <time>2024-02-03T10:07:13Z</time>
      </trkpt>
      <trkpt lat="48.70631" lon="7.18252">
        <ele>304.3</ele>
        <time>2024-02-03T10:07:16Z</time>
      </trkpt>
      <trkpt lat="48.7065" lon="7.18256">
        <ele>307.8</ele>
        <time>2024-02-03T10:07:33Z</time>
      </trkpt>
      <trkpt lat="48.70667" lon="7.18246">
        <ele>312.5</ele>
        <time>2024-02-03T10:08:01Z</time>
      </trkpt>
      <trkpt lat="48.70673" lon="7.1824">
        <ele>314.1</ele>
        <time>2024-02-03T10:08:09Z</time>
      </trkpt>
      <trkpt lat="48.70676" lon="7.18234">
        <ele>315.1</ele>
        <time>2024-02-03T10:08:13Z</time>
      </trkpt>
      <trkpt lat="48.70675" lon="7.18207">
        <ele>315.7</ele>
        <time>2024-02-03T10:08:22Z</time>
      </trkpt>
      <trkpt lat="48.70666" lon="7.18183">
        <ele>315.2</ele>
        <time>2024-02-03T10:08:28Z</time>
      </trkpt>
      <trkpt lat="48.70657" lon="7.18159">
        <ele>313.7</ele>
        <time>2024-02-03T10:08:34Z</time>
      </trkpt>
      <trkpt lat="48.70651" lon="7.18129">
        <ele>313.3</ele>
        <time>2024-02-03T10:08:41Z</time>
      </trkpt>
      <trkpt lat="48.70644" lon="7.18099">
        <ele>314.7</ele>
        <time>2024-02-03T10:08:47Z</time>
      </trkpt>
      <trkpt lat="48.70637" lon="7.18072">
        <ele>315.6</ele>
        <time>2024-02-03T10:08:52Z</time>
      </trkpt>
      <trkpt lat="48.70633" lon="7.18053">
        <ele>316.5</ele>
        <time>2024-02-03T10:08:59Z</time>
      </trkpt>
      <trkpt lat="48.70632" lon="7.18045">
        <ele>317.1</ele>
        <time>2024-02-03T10:09:02Z</time>
      </trkpt>
      <trkpt lat="48.7063" lon="7.18015">
        <ele>319.2</ele>
        <time>2024-02-03T10:09:09Z</time>
      </trkpt>
      <trkpt lat="48.70629" lon="7.17986">
        <ele>321.7</ele>
        <time>2024-02-03T10:09:16Z</time>
      </trkpt>
      <trkpt lat="48.70628" lon="7.17956">
        <ele>323.4</ele>
        <time>2024-02-03T10:09:25Z</time>
      </trkpt>
      <trkpt lat="48.7063" lon="7.17927">
        <ele>325.8</ele>
        <time>2024-02-03T10:09:33Z</time>
      </trkpt>
      <trkpt lat="48.70635" lon="7.17912">
        <ele>328.2</ele>
        <time>2024-02-03T10:09:42Z</time>
      </trkpt>
      <trkpt lat="48.70622" lon="7.17888">
        <ele>325.5</ele>
        <time>2024-02-03T10:09:50Z</time>
      </trkpt>
      <trkpt lat="48.70612" lon="7.17861">
        <ele>324.1</ele>
        <time>2024-02-03T10:09:56Z</time>
      </trkpt>
      <trkpt lat="48.70604" lon="7.17836">
        <ele>322.3</ele>
        <time>2024-02-03T10:10:02Z</time>
      </trkpt>
      <trkpt lat="48.70599" lon="7.17808">
        <ele>321.2</ele>
        <time>2024-02-03T10:10:08Z</time>
      </trkpt>
      <trkpt lat="48.70598" lon="7.17777">
        <ele>321.3</ele>
        <time>2024-02-03T10:10:15Z</time>
      </trkpt>
      <trkpt lat="48.70599" lon="7.17749">
        <ele>321.3</ele>
        <time>2024-02-03T10:10:21Z</time>
      </trkpt>
      <trkpt lat="48.70606" lon="7.17735">
        <ele>322.5</ele>
        <time>2024-02-03T10:10:26Z</time>
      </trkpt>
      <trkpt lat="48.70606" lon="7.17733">
        <ele>323.2</ele>
        <time>2024-02-03T10:10:29Z</time>
      </trkpt>
      <trkpt lat="48.70606" lon="7.17705">
        <ele>323.6</ele>
        <time>2024-02-03T10:10:36Z</time>
      </trkpt>
      <trkpt lat="48.70612" lon="7.17677">
        <ele>325</ele>
        <time>2024-02-03T10:10:44Z</time>
      </trkpt>
      <trkpt lat="48.7062" lon="7.17648">
        <ele>326.5</ele>
        <time>2024-02-03T10:10:52Z</time>
      </trkpt>
      <trkpt lat="48.7063" lon="7.17623">
        <ele>328.9</ele>
        <time>2024-02-03T10:11:01Z</time>
      </trkpt>
      <trkpt lat="48.70641" lon="7.176">
        <ele>330.7</ele>
        <time>2024-02-03T10:11:10Z</time>
      </trkpt>
      <trkpt lat="48.70657" lon="7.17596">
        <ele>333.5</ele>
        <time>2024-02-03T10:11:23Z</time>
      </trkpt>
      <trkpt lat="48.70657" lon="7.17595">
        <ele>333.5</ele>
        <time>2024-02-03T10:11:26Z</time>
      </trkpt>
      <trkpt lat="48.70649" lon="7.1757">
        <ele>332</ele>
        <time>2024-02-03T10:11:32Z</time>
      </trkpt>
      <trkpt lat="48.70641" lon="7.17547">
        <ele>330.5</ele>
        <time>2024-02-03T10:11:36Z</time>
      </trkpt>
      <trkpt lat="48.70633" lon="7.17518">
        <ele>329.4</ele>
        <time>2024-02-03T10:11:42Z</time>
      </trkpt>
      <trkpt lat="48.70623" lon="7.17489">
        <ele>328.4</ele>
        <time>2024-02-03T10:11:47Z</time>
      </trkpt>
      <trkpt lat="48.70618" lon="7.17462">
        <ele>328.7</ele>
        <time>2024-02-03T10:11:51Z</time>
      </trkpt>
      <trkpt lat="48.70606" lon="7.17441">
        <ele>328.1</ele>
        <time>2024-02-03T10:11:57Z</time>
      </trkpt>
      <trkpt lat="48.70589" lon="7.17422">
        <ele>327.3</ele>
        <time>2024-02-03T10:12:04Z</time>
      </trkpt>
      <trkpt lat="48.70575" lon="7.17404">
        <ele>327.7</ele>
        <time>2024-02-03T10:12:13Z</time>
      </trkpt>
      <trkpt lat="48.70577" lon="7.17403">
        <ele>328.1</ele>
        <time>2024-02-03T10:12:15Z</time>
      </trkpt>
      <trkpt lat="48.70589" lon="7.1738">
        <ele>330</ele>
        <time>2024-02-03T10:12:26Z</time>
      </trkpt>
      <trkpt lat="48.70599" lon="7.17356">
        <ele>331.6</ele>
        <time>2024-02-03T10:12:34Z</time>
      </trkpt>
      <trkpt lat="48.70608" lon="7.17331">
        <ele>333.8</ele>
        <time>2024-02-03T10:12:42Z</time>
      </trkpt>
      <trkpt lat="48.70613" lon="7.17302">
        <ele>335.3</ele>
        <time>2024-02-03T10:12:52Z</time>
      </trkpt>
      <trkpt lat="48.70622" lon="7.17277">
        <ele>336.5</ele>
        <time>2024-02-03T10:13:01Z</time>
      </trkpt>
      <trkpt lat="48.70629" lon="7.17251">
        <ele>337.4</ele>
        <time>2024-02-03T10:13:11Z</time>
      </trkpt>
      <trkpt lat="48.70638" lon="7.17226">
        <ele>338.3</ele>
        <time>2024-02-03T10:13:21Z</time>
      </trkpt>
      <trkpt lat="48.7065" lon="7.17206">
        <ele>339.5</ele>
        <time>2024-02-03T10:13:43Z</time>
      </trkpt>
      <trkpt lat="48.70659" lon="7.17182">
        <ele>340.3</ele>
        <time>2024-02-03T10:14:02Z</time>
      </trkpt>
      <trkpt lat="48.70667" lon="7.17155">
        <ele>342</ele>
        <time>2024-02-03T10:14:11Z</time>
      </trkpt>
      <trkpt lat="48.70676" lon="7.1713">
        <ele>343.3</ele>
        <time>2024-02-03T10:14:19Z</time>
      </trkpt>
      <trkpt lat="48.70686" lon="7.17104">
        <ele>345</ele>
        <time>2024-02-03T10:14:27Z</time>
      </trkpt>
      <trkpt lat="48.70698" lon="7.17079">
        <ele>347</ele>
        <time>2024-02-03T10:14:35Z</time>
      </trkpt>
      <trkpt lat="48.70707" lon="7.17055">
        <ele>348.7</ele>
        <time>2024-02-03T10:14:42Z</time>
      </trkpt>
      <trkpt lat="48.70718" lon="7.1703">
        <ele>350.4</ele>
        <time>2024-02-03T10:14:49Z</time>
      </trkpt>
      <trkpt lat="48.70728" lon="7.17007">
        <ele>352.3</ele>
        <time>2024-02-03T10:14:55Z</time>
      </trkpt>
      <trkpt lat="48.70738" lon="7.16983">
        <ele>353.2</ele>
        <time>2024-02-03T10:15:01Z</time>
      </trkpt>
      <trkpt lat="48.70742" lon="7.16976">
        <ele>353.5</ele>
        <time>2024-02-03T10:15:04Z</time>
      </trkpt>
      <trkpt lat="48.70759" lon="7.16972">
        <ele>354.1</ele>
        <time>2024-02-03T10:15:11Z</time>
      </trkpt>
      <trkpt lat="48.70778" lon="7.16959">
        <ele>354.1</ele>
        <time>2024-02-03T10:15:17Z</time>
      </trkpt>
      <trkpt lat="48.70796" lon="7.16943">
        <ele>353.9</ele>
        <time>2024-02-03T10:15:23Z</time>
      </trkpt>
      <trkpt lat="48.70811" lon="7.16927">
        <ele>353.6</ele>
        <time>2024-02-03T10:15:28Z</time>
      </trkpt>
      <trkpt lat="48.70829" lon="7.16908">
        <ele>352.9</ele>
        <time>2024-02-03T10:15:34Z</time>
      </trkpt>
      <trkpt lat="48.70844" lon="7.16888">
        <ele>351.7</ele>
        <time>2024-02-03T10:15:39Z</time>
      </trkpt>
      <trkpt lat="48.70858" lon="7.16867">
        <ele>350.3</ele>
        <time>2024-02-03T10:15:44Z</time>
      </trkpt>
      <trkpt lat="48.7087" lon="7.16844">
        <ele>349</ele>
        <time>2024-02-03T10:15:49Z</time>
      </trkpt>
      <trkpt lat="48.7088" lon="7.16819">
        <ele>348.2</ele>
        <time>2024-02-03T10:15:54Z</time>
      </trkpt>
      <trkpt lat="48.70886" lon="7.1681">
        <ele>347.9</ele>
        <time>2024-02-03T10:15:56Z</time>
      </trkpt>
      <trkpt lat="48.70904" lon="7.16797">
        <ele>347.2</ele>
        <time>2024-02-03T10:16:01Z</time>
      </trkpt>
      <trkpt lat="48.70924" lon="7.16786">
        <ele>346.5</ele>
        <time>2024-02-03T10:16:06Z</time>
      </trkpt>
      <trkpt lat="48.70945" lon="7.16773">
        <ele>345.7</ele>
        <time>2024-02-03T10:16:11Z</time>
      </trkpt>
      <trkpt lat="48.70963" lon="7.16762">
        <ele>344.8</ele>
        <time>2024-02-03T10:16:16Z</time>
      </trkpt>
      <trkpt lat="48.70974" lon="7.16756">
        <ele>344.5</ele>
        <time>2024-02-03T10:16:19Z</time>
      </trkpt>
      <trkpt lat="48.70982" lon="7.16758">
        <ele>344.3</ele>
        <time>2024-02-03T10:16:21Z</time>
      </trkpt>
      <trkpt lat="48.70989" lon="7.16762">
        <ele>344.3</ele>
        <time>2024-02-03T10:16:23Z</time>
      </trkpt>
      <trkpt lat="48.71007" lon="7.16776">
        <ele>344.2</ele>
        <time>2024-02-03T10:16:28Z</time>
      </trkpt>
      <trkpt lat="48.71026" lon="7.16792">
        <ele>344</ele>
        <time>2024-02-03T10:16:34Z</time>
      </trkpt>
      <trkpt lat="48.71043" lon="7.16806">
        <ele>343.4</ele>
        <time>2024-02-03T10:16:40Z</time>
      </trkpt>
      <trkpt lat="48.71045" lon="7.16813">
        <ele>343.6</ele>
        <time>2024-02-03T10:16:42Z</time>
      </trkpt>
      <trkpt lat="48.71043" lon="7.16815">
        <ele>343.7</ele>
        <time>2024-02-03T10:16:45Z</time>
      </trkpt>
      <trkpt lat="48.71043" lon="7.1681">
        <ele>343.5</ele>
        <time>2024-02-03T10:16:47Z</time>
      </trkpt>
      <trkpt lat="48.71041" lon="7.1678">
        <ele>343.1</ele>
        <time>2024-02-03T10:16:53Z</time>
      </trkpt>
      <trkpt lat="48.71036" lon="7.1675">
        <ele>342.4</ele>
        <time>2024-02-03T10:16:58Z</time>
      </trkpt>
      <trkpt lat="48.71029" lon="7.16722">
        <ele>342</ele>
        <time>2024-02-03T10:17:03Z</time>
      </trkpt>
      <trkpt lat="48.71027" lon="7.16694">
        <ele>341.5</ele>
        <time>2024-02-03T10:17:08Z</time>
      </trkpt>
      <trkpt lat="48.71025" lon="7.16665">
        <ele>340.8</ele>
        <time>2024-02-03T10:17:13Z</time>
      </trkpt>
      <trkpt lat="48.71026" lon="7.16636">
        <ele>339.9</ele>
        <time>2024-02-03T10:17:18Z</time>
      </trkpt>
      <trkpt lat="48.71029" lon="7.16605">
        <ele>338.7</ele>
        <time>2024-02-03T10:17:24Z</time>
      </trkpt>
      <trkpt lat="48.7103" lon="7.16587">
        <ele>338</ele>
        <time>2024-02-03T10:17:28Z</time>
      </trkpt>
      <trkpt lat="48.71025" lon="7.1658">
        <ele>338.1</ele>
        <time>2024-02-03T10:17:31Z</time>
      </trkpt>
      <trkpt lat="48.71021" lon="7.1655">
        <ele>336.6</ele>
        <time>2024-02-03T10:17:38Z</time>
      </trkpt>
      <trkpt lat="48.7102" lon="7.16547">
        <ele>336.4</ele>
        <time>2024-02-03T10:17:40Z</time>
      </trkpt>
      <trkpt lat="48.71019" lon="7.16538">
        <ele>336</ele>
        <time>2024-02-03T10:17:55Z</time>
      </trkpt>
      <trkpt lat="48.71014" lon="7.16511">
        <ele>335.1</ele>
        <time>2024-02-03T10:18:00Z</time>
      </trkpt>
      <trkpt lat="48.71011" lon="7.16482">
        <ele>334</ele>
        <time>2024-02-03T10:18:05Z</time>
      </trkpt>
      <trkpt lat="48.71011" lon="7.16454">
        <ele>332.7</ele>
        <time>2024-02-03T10:18:10Z</time>
      </trkpt>
      <trkpt lat="48.7101" lon="7.16425">
        <ele>331.7</ele>
        <time>2024-02-03T10:18:15Z</time>
      </trkpt>
      <trkpt lat="48.71008" lon="7.16393">
        <ele>330.3</ele>
        <time>2024-02-03T10:18:20Z</time>
      </trkpt>
      <trkpt lat="48.71005" lon="7.16364">
        <ele>329.2</ele>
        <time>2024-02-03T10:18:24Z</time>
      </trkpt>
      <trkpt lat="48.71005" lon="7.16349">
        <ele>328.5</ele>
        <time>2024-02-03T10:18:26Z</time>
      </trkpt>
      <trkpt lat="48.71008" lon="7.16335">
        <ele>327.7</ele>
        <time>2024-02-03T10:18:28Z</time>
      </trkpt>
      <trkpt lat="48.71018" lon="7.1631">
        <ele>326.4</ele>
        <time>2024-02-03T10:18:32Z</time>
      </trkpt>
      <trkpt lat="48.71024" lon="7.16296">
        <ele>325.6</ele>
        <time>2024-02-03T10:18:35Z</time>
      </trkpt>
      <trkpt lat="48.71025" lon="7.16296">
        <ele>325.8</ele>
        <time>2024-02-03T10:18:38Z</time>
      </trkpt>
      <trkpt lat="48.71015" lon="7.1632">
        <ele>326.8</ele>
        <time>2024-02-03T10:18:43Z</time>
      </trkpt>
      <trkpt lat="48.71003" lon="7.16347">
        <ele>328.2</ele>
        <time>2024-02-03T10:18:48Z</time>
      </trkpt>
      <trkpt lat="48.70993" lon="7.16374">
        <ele>330.1</ele>
        <time>2024-02-03T10:18:53Z</time>
      </trkpt>
      <trkpt lat="48.70984" lon="7.16399">
        <ele>331.6</ele>
        <time>2024-02-03T10:18:58Z</time>
      </trkpt>
      <trkpt lat="48.70982" lon="7.16403">
        <ele>331.7</ele>
        <time>2024-02-03T10:18:59Z</time>
      </trkpt>
      <trkpt lat="48.70971" lon="7.16424">
        <ele>333.2</ele>
        <time>2024-02-03T10:19:04Z</time>
      </trkpt>
      <trkpt lat="48.7096" lon="7.16447">
        <ele>334.6</ele>
        <time>2024-02-03T10:19:09Z</time>
      </trkpt>
      <trkpt lat="48.7095" lon="7.16469">
        <ele>335.7</ele>
        <time>2024-02-03T10:19:14Z</time>
      </trkpt>
      <trkpt lat="48.70939" lon="7.16495">
        <ele>337.3</ele>
        <time>2024-02-03T10:19:20Z</time>
      </trkpt>
      <trkpt lat="48.70928" lon="7.16519">
        <ele>338.7</ele>
        <time>2024-02-03T10:19:26Z</time>
      </trkpt>
      <trkpt lat="48.70919" lon="7.16543">
        <ele>340.5</ele>
        <time>2024-02-03T10:19:32Z</time>
      </trkpt>
      <trkpt lat="48.70921" lon="7.16572">
        <ele>342</ele>
        <time>2024-02-03T10:19:39Z</time>
      </trkpt>
      <trkpt lat="48.70916" lon="7.16578">
        <ele>342.5</ele>
        <time>2024-02-03T10:19:42Z</time>
      </trkpt>
      <trkpt lat="48.70915" lon="7.16576">
        <ele>342.5</ele>
        <time>2024-02-03T10:19:45Z</time>
      </trkpt>
      <trkpt lat="48.70901" lon="7.16592">
        <ele>343.7</ele>
        <time>2024-02-03T10:19:53Z</time>
      </trkpt>
      <trkpt lat="48.70885" lon="7.16609">
        <ele>344.7</ele>
        <time>2024-02-03T10:19:59Z</time>
      </trkpt>
      <trkpt lat="48.7087" lon="7.16624">
        <ele>345.3</ele>
        <time>2024-02-03T10:20:05Z</time>
      </trkpt>
      <trkpt lat="48.70853" lon="7.16622">
        <ele>345.3</ele>
        <time>2024-02-03T10:20:11Z</time>
      </trkpt>
      <trkpt lat="48.70838" lon="7.16606">
        <ele>345.4</ele>
        <time>2024-02-03T10:20:16Z</time>
      </trkpt>
      <trkpt lat="48.70823" lon="7.1659">
        <ele>345.4</ele>
        <time>2024-02-03T10:20:21Z</time>
      </trkpt>
      <trkpt lat="48.70803" lon="7.16585">
        <ele>345.5</ele>
        <time>2024-02-03T10:20:27Z</time>
      </trkpt>
      <trkpt lat="48.70783" lon="7.16578">
        <ele>345.6</ele>
        <time>2024-02-03T10:20:33Z</time>
      </trkpt>
      <trkpt lat="48.70763" lon="7.16572">
        <ele>345.9</ele>
        <time>2024-02-03T10:20:39Z</time>
      </trkpt>
      <trkpt lat="48.70742" lon="7.16572">
        <ele>346.2</ele>
        <time>2024-02-03T10:20:46Z</time>
      </trkpt>
      <trkpt lat="48.70737" lon="7.16566">
        <ele>346.3</ele>
        <time>2024-02-03T10:20:52Z</time>
      </trkpt>
      <trkpt lat="48.70735" lon="7.16567">
        <ele>346.3</ele>
        <time>2024-02-03T10:20:55Z</time>
      </trkpt>
      <trkpt lat="48.70735" lon="7.16559">
        <ele>346.4</ele>
        <time>2024-02-03T10:20:59Z</time>
      </trkpt>
      <trkpt lat="48.70742" lon="7.16534">
        <ele>346.6</ele>
        <time>2024-02-03T10:21:14Z</time>
      </trkpt>
      <trkpt lat="48.70745" lon="7.16521">
        <ele>346.8</ele>
        <time>2024-02-03T10:21:25Z</time>
      </trkpt>
      <trkpt lat="48.70744" lon="7.16519">
        <ele>346.8</ele>
        <time>2024-02-03T10:21:43Z</time>
      </trkpt>
      <trkpt lat="48.70741" lon="7.16517">
        <ele>346.9</ele>
        <time>2024-02-03T10:21:45Z</time>
      </trkpt>
      <trkpt lat="48.70724" lon="7.165">
        <ele>347.1</ele>
        <time>2024-02-03T10:21:53Z</time>
      </trkpt>
      <trkpt lat="48.70709" lon="7.16484">
        <ele>347.4</ele>
        <time>2024-02-03T10:22:00Z</time>
      </trkpt>
      <trkpt lat="48.70693" lon="7.16469">
        <ele>347.5</ele>
        <time>2024-02-03T10:22:07Z</time>
      </trkpt>
      <trkpt lat="48.70676" lon="7.16451">
        <ele>347.4</ele>
        <time>2024-02-03T10:22:14Z</time>
      </trkpt>
      <trkpt lat="48.70659" lon="7.16432">
        <ele>347.1</ele>
        <time>2024-02-03T10:22:21Z</time>
      </trkpt>
      <trkpt lat="48.70658" lon="7.16424">
        <ele>347</ele>
        <time>2024-02-03T10:22:23Z</time>
      </trkpt>
      <trkpt lat="48.70662" lon="7.16411">
        <ele>346.5</ele>
        <time>2024-02-03T10:22:28Z</time>
      </trkpt>
      <trkpt lat="48.70674" lon="7.1641">
        <ele>345.9</ele>
        <time>2024-02-03T10:35:59Z</time>
      </trkpt>
      <trkpt lat="48.70676" lon="7.16396">
        <ele>345.2</ele>
        <time>2024-02-03T10:36:06Z</time>
      </trkpt>
      <trkpt lat="48.70668" lon="7.1641">
        <ele>344.4</ele>
        <time>2024-02-03T10:36:13Z</time>
      </trkpt>
      <trkpt lat="48.7067" lon="7.1641">
        <ele>344.3</ele>
        <time>2024-02-03T10:36:56Z</time>
      </trkpt>
      <trkpt lat="48.70671" lon="7.16407">
        <ele>344.1</ele>
        <time>2024-02-03T10:36:57Z</time>
      </trkpt>
      <trkpt lat="48.70673" lon="7.16405">
        <ele>344</ele>
        <time>2024-02-03T10:36:58Z</time>
      </trkpt>
      <trkpt lat="48.70685" lon="7.16381">
        <ele>342.6</ele>
        <time>2024-02-03T10:37:05Z</time>
      </trkpt>
      <trkpt lat="48.70698" lon="7.16359">
        <ele>341.2</ele>
        <time>2024-02-03T10:37:11Z</time>
      </trkpt>
      <trkpt lat="48.70711" lon="7.16337">
        <ele>339.8</ele>
        <time>2024-02-03T10:37:17Z</time>
      </trkpt>
      <trkpt lat="48.70724" lon="7.16315">
        <ele>338.5</ele>
        <time>2024-02-03T10:37:23Z</time>
      </trkpt>
      <trkpt lat="48.70737" lon="7.16294">
        <ele>337.1</ele>
        <time>2024-02-03T10:37:29Z</time>
      </trkpt>
      <trkpt lat="48.70751" lon="7.16272">
        <ele>335.5</ele>
        <time>2024-02-03T10:37:36Z</time>
      </trkpt>
      <trkpt lat="48.70764" lon="7.16247">
        <ele>333.8</ele>
        <time>2024-02-03T10:37:43Z</time>
      </trkpt>
      <trkpt lat="48.70776" lon="7.16225">
        <ele>332.3</ele>
        <time>2024-02-03T10:37:49Z</time>
      </trkpt>
      <trkpt lat="48.70788" lon="7.16204">
        <ele>331</ele>
        <time>2024-02-03T10:37:55Z</time>
      </trkpt>
      <trkpt lat="48.708" lon="7.16182">
        <ele>329.6</ele>
        <time>2024-02-03T10:38:01Z</time>
      </trkpt>
      <trkpt lat="48.70813" lon="7.16157">
        <ele>328</ele>
        <time>2024-02-03T10:38:08Z</time>
      </trkpt>
      <trkpt lat="48.70828" lon="7.16135">
        <ele>326.1</ele>
        <time>2024-02-03T10:38:14Z</time>
      </trkpt>
      <trkpt lat="48.70847" lon="7.1613">
        <ele>324.7</ele>
        <time>2024-02-03T10:38:20Z</time>
      </trkpt>
      <trkpt lat="48.70865" lon="7.16133">
        <ele>324</ele>
        <time>2024-02-03T10:38:25Z</time>
      </trkpt>
      <trkpt lat="48.70885" lon="7.16138">
        <ele>323.2</ele>
        <time>2024-02-03T10:38:31Z</time>
      </trkpt>
      <trkpt lat="48.70904" lon="7.16141">
        <ele>322.5</ele>
        <time>2024-02-03T10:38:37Z</time>
      </trkpt>
      <trkpt lat="48.70922" lon="7.16145">
        <ele>321.8</ele>
        <time>2024-02-03T10:38:43Z</time>
      </trkpt>
      <trkpt lat="48.7094" lon="7.16148">
        <ele>321.2</ele>
        <time>2024-02-03T10:38:49Z</time>
      </trkpt>
      <trkpt lat="48.7096" lon="7.16152">
        <ele>320.5</ele>
        <time>2024-02-03T10:38:55Z</time>
      </trkpt>
      <trkpt lat="48.70978" lon="7.16159">
        <ele>319.9</ele>
        <time>2024-02-03T10:39:01Z</time>
      </trkpt>
      <trkpt lat="48.70997" lon="7.16164">
        <ele>319.3</ele>
        <time>2024-02-03T10:39:07Z</time>
      </trkpt>
      <trkpt lat="48.71015" lon="7.16168">
        <ele>319</ele>
        <time>2024-02-03T10:39:12Z</time>
      </trkpt>
      <trkpt lat="48.71034" lon="7.16171">
        <ele>318.9</ele>
        <time>2024-02-03T10:39:17Z</time>
      </trkpt>
      <trkpt lat="48.71055" lon="7.16177">
        <ele>318.8</ele>
        <time>2024-02-03T10:39:23Z</time>
      </trkpt>
      <trkpt lat="48.71075" lon="7.16188">
        <ele>318.7</ele>
        <time>2024-02-03T10:39:29Z</time>
      </trkpt>
      <trkpt lat="48.71092" lon="7.16207">
        <ele>318.6</ele>
        <time>2024-02-03T10:39:35Z</time>
      </trkpt>
      <trkpt lat="48.71105" lon="7.16228">
        <ele>318.5</ele>
        <time>2024-02-03T10:39:41Z</time>
      </trkpt>
      <trkpt lat="48.7112" lon="7.16251">
        <ele>318.3</ele>
        <time>2024-02-03T10:39:48Z</time>
      </trkpt>
      <trkpt lat="48.71134" lon="7.16271">
        <ele>318</ele>
        <time>2024-02-03T10:39:55Z</time>
      </trkpt>
      <trkpt lat="48.71145" lon="7.16284">
        <ele>317.6</ele>
        <time>2024-02-03T10:40:00Z</time>
      </trkpt>
    </trkseg>
  </trk>
</gpx>